sensor_id;sensor_type;location;lat;lon;timestamp;P1;durP1;ratioP1;P2;durP2;ratioP2
79019;SDS011;68422;44.714;37.756;2023-03-16T00:00:47;7.93;;;3.92;;
79019;SDS011;68422;44.714;37.756;2023-03-16T00:01:48;4.90;;;2.85;;
79019;SDS011;68422;44.714;37.756;2023-03-16T00:02:49;5.97;;;3.03;;
79019;SDS011;68422;44.714;37.756;2023-03-16T00:03:50;5.70;;;3.03;;
79019;SDS011;68422;44.714;37.756;2023-03-16T00:04:52;6.68;;;3.40;;
79019;SDS011;68422;44.714;37.756;2023-03-16T00:05:55;5.55;;;3.00;;
79019;SDS011;68422;44.714;37.756;2023-03-16T00:06:56;6.22;;;3.30;;
79019;SDS011;68422;44.714;37.756;2023-03-16T00:07:58;5.47;;;2.83;;
79019;SDS011;68422;44.714;37.756;2023-03-16T00:08:59;4.97;;;2.83;;
79019;SDS011;68422;44.714;37.756;2023-03-16T00:10:00;5.15;;;3.00;;
79019;SDS011;68422;44.714;37.756;2023-03-16T00:11:03;5.85;;;3.17;;
79019;SDS011;68422;44.714;37.756;2023-03-16T00:12:05;5.32;;;2.88;;
79019;SDS011;68422;44.714;37.756;2023-03-16T00:13:07;5.00;;;2.80;;
79019;SDS011;68422;44.714;37.756;2023-03-16T00:14:08;4.78;;;2.83;;
79019;SDS011;68422;44.714;37.756;2023-03-16T00:15:13;5.68;;;2.90;;
79019;SDS011;68422;44.714;37.756;2023-03-16T00:16:15;5.60;;;3.13;;
79019;SDS011;68422;44.714;37.756;2023-03-16T00:17:18;5.25;;;2.58;;
79019;SDS011;68422;44.714;37.756;2023-03-16T00:18:20;6.97;;;2.90;;
79019;SDS011;68422;44.714;37.756;2023-03-16T00:19:23;6.35;;;2.88;;
79019;SDS011;68422;44.714;37.756;2023-03-16T00:20:24;5.95;;;3.08;;
79019;SDS011;68422;44.714;37.756;2023-03-16T00:21:25;6.45;;;2.72;;
79019;SDS011;68422;44.714;37.756;2023-03-16T00:22:27;5.63;;;2.78;;
79019;SDS011;68422;44.714;37.756;2023-03-16T00:23:30;7.50;;;3.13;;
79019;SDS011;68422;44.714;37.756;2023-03-16T00:24:35;8.52;;;3.35;;
79019;SDS011;68422;44.714;37.756;2023-03-16T00:25:36;6.93;;;3.03;;
79019;SDS011;68422;44.714;37.756;2023-03-16T00:26:37;5.18;;;3.00;;
79019;SDS011;68422;44.714;37.756;2023-03-16T00:27:39;6.03;;;2.88;;
79019;SDS011;68422;44.714;37.756;2023-03-16T00:28:40;5.47;;;3.45;;
79019;SDS011;68422;44.714;37.756;2023-03-16T00:29:46;4.95;;;3.05;;
79019;SDS011;68422;44.714;37.756;2023-03-16T00:30:48;5.07;;;2.60;;
79019;SDS011;68422;44.714;37.756;2023-03-16T00:31:49;5.47;;;2.65;;
79019;SDS011;68422;44.714;37.756;2023-03-16T00:32:51;6.60;;;3.00;;
79019;SDS011;68422;44.714;37.756;2023-03-16T00:33:53;6.22;;;3.20;;
79019;SDS011;68422;44.714;37.756;2023-03-16T00:34:54;8.07;;;3.10;;
79019;SDS011;68422;44.714;37.756;2023-03-16T00:35:56;5.43;;;2.95;;
79019;SDS011;68422;44.714;37.756;2023-03-16T00:37:03;4.78;;;2.92;;
79019;SDS011;68422;44.714;37.756;2023-03-16T00:38:04;5.72;;;3.05;;
79019;SDS011;68422;44.714;37.756;2023-03-16T00:39:06;4.97;;;2.97;;
79019;SDS011;68422;44.714;37.756;2023-03-16T00:40:07;5.97;;;3.30;;
79019;SDS011;68422;44.714;37.756;2023-03-16T00:41:09;5.43;;;2.90;;
79019;SDS011;68422;44.714;37.756;2023-03-16T00:42:15;5.10;;;3.15;;
79019;SDS011;68422;44.714;37.756;2023-03-16T00:43:18;6.50;;;3.25;;
79019;SDS011;68422;44.714;37.756;2023-03-16T00:44:19;5.72;;;3.28;;
79019;SDS011;68422;44.714;37.756;2023-03-16T00:45:21;5.80;;;2.88;;
79019;SDS011;68422;44.714;37.756;2023-03-16T00:46:25;5.57;;;2.60;;
79019;SDS011;68422;44.714;37.756;2023-03-16T00:47:28;5.63;;;2.90;;
79019;SDS011;68422;44.714;37.756;2023-03-16T00:48:32;6.22;;;3.20;;
79019;SDS011;68422;44.714;37.756;2023-03-16T00:49:34;4.70;;;2.85;;
79019;SDS011;68422;44.714;37.756;2023-03-16T00:50:36;5.95;;;3.00;;
79019;SDS011;68422;44.714;37.756;2023-03-16T00:51:38;7.10;;;3.17;;
79019;SDS011;68422;44.714;37.756;2023-03-16T00:52:39;7.18;;;3.47;;
79019;SDS011;68422;44.714;37.756;2023-03-16T00:53:42;6.32;;;3.30;;
79019;SDS011;68422;44.714;37.756;2023-03-16T00:54:45;5.32;;;3.13;;
79019;SDS011;68422;44.714;37.756;2023-03-16T00:55:46;5.75;;;3.10;;
79019;SDS011;68422;44.714;37.756;2023-03-16T00:56:48;5.13;;;3.03;;
79019;SDS011;68422;44.714;37.756;2023-03-16T00:57:49;6.18;;;3.20;;
79019;SDS011;68422;44.714;37.756;2023-03-16T00:58:50;5.55;;;3.80;;
79019;SDS011;68422;44.714;37.756;2023-03-16T00:59:57;6.15;;;3.42;;
79019;SDS011;68422;44.714;37.756;2023-03-16T01:00:59;6.22;;;3.50;;
79019;SDS011;68422;44.714;37.756;2023-03-16T01:02:02;4.57;;;2.83;;
79019;SDS011;68422;44.714;37.756;2023-03-16T01:03:05;5.03;;;2.83;;
79019;SDS011;68422;44.714;37.756;2023-03-16T01:04:06;6.88;;;3.35;;
79019;SDS011;68422;44.714;37.756;2023-03-16T01:05:09;6.47;;;3.10;;
79019;SDS011;68422;44.714;37.756;2023-03-16T01:06:13;5.03;;;3.13;;
79019;SDS011;68422;44.714;37.756;2023-03-16T01:07:16;6.07;;;3.60;;
79019;SDS011;68422;44.714;37.756;2023-03-16T01:08:17;6.75;;;3.22;;
79019;SDS011;68422;44.714;37.756;2023-03-16T01:09:19;6.47;;;3.63;;
79019;SDS011;68422;44.714;37.756;2023-03-16T01:10:21;5.38;;;2.88;;
79019;SDS011;68422;44.714;37.756;2023-03-16T01:11:22;5.45;;;3.00;;
79019;SDS011;68422;44.714;37.756;2023-03-16T01:12:23;6.82;;;3.20;;
79019;SDS011;68422;44.714;37.756;2023-03-16T01:13:25;5.63;;;3.42;;
79019;SDS011;68422;44.714;37.756;2023-03-16T01:14:26;5.28;;;3.33;;
79019;SDS011;68422;44.714;37.756;2023-03-16T01:15:28;6.97;;;3.13;;
79019;SDS011;68422;44.714;37.756;2023-03-16T01:16:30;5.70;;;3.20;;
79019;SDS011;68422;44.714;37.756;2023-03-16T01:17:33;6.22;;;3.20;;
79019;SDS011;68422;44.714;37.756;2023-03-16T01:18:34;5.40;;;2.95;;
79019;SDS011;68422;44.714;37.756;2023-03-16T01:19:36;5.68;;;3.22;;
79019;SDS011;68422;44.714;37.756;2023-03-16T01:20:38;4.78;;;2.75;;
79019;SDS011;68422;44.714;37.756;2023-03-16T01:21:40;6.03;;;3.45;;
79019;SDS011;68422;44.714;37.756;2023-03-16T01:22:44;7.05;;;3.53;;
79019;SDS011;68422;44.714;37.756;2023-03-16T01:23:45;7.57;;;3.40;;
79019;SDS011;68422;44.714;37.756;2023-03-16T01:24:46;6.07;;;3.30;;
79019;SDS011;68422;44.714;37.756;2023-03-16T01:25:48;6.88;;;3.55;;
79019;SDS011;68422;44.714;37.756;2023-03-16T01:26:53;5.57;;;3.00;;
79019;SDS011;68422;44.714;37.756;2023-03-16T01:27:55;5.70;;;3.13;;
79019;SDS011;68422;44.714;37.756;2023-03-16T01:28:56;6.43;;;3.05;;
79019;SDS011;68422;44.714;37.756;2023-03-16T01:29:58;5.82;;;3.33;;
79019;SDS011;68422;44.714;37.756;2023-03-16T01:31:01;5.10;;;3.08;;
79019;SDS011;68422;44.714;37.756;2023-03-16T01:32:08;5.68;;;2.90;;
79019;SDS011;68422;44.714;37.756;2023-03-16T01:33:09;5.68;;;2.92;;
79019;SDS011;68422;44.714;37.756;2023-03-16T01:34:10;5.88;;;3.00;;
79019;SDS011;68422;44.714;37.756;2023-03-16T01:35:17;5.97;;;3.30;;
79019;SDS011;68422;44.714;37.756;2023-03-16T01:36:21;5.50;;;3.00;;
79019;SDS011;68422;44.714;37.756;2023-03-16T01:37:35;6.20;;;3.13;;
79019;SDS011;68422;44.714;37.756;2023-03-16T01:38:47;6.40;;;2.90;;
79019;SDS011;68422;44.714;37.756;2023-03-16T01:39:48;5.07;;;3.15;;
79019;SDS011;68422;44.714;37.756;2023-03-16T01:40:50;4.68;;;2.85;;
79019;SDS011;68422;44.714;37.756;2023-03-16T01:41:53;5.63;;;2.97;;
79019;SDS011;68422;44.714;37.756;2023-03-16T01:43:00;5.53;;;3.50;;
79019;SDS011;68422;44.714;37.756;2023-03-16T01:44:05;5.97;;;3.60;;
79019;SDS011;68422;44.714;37.756;2023-03-16T01:45:51;5.63;;;2.90;;
79019;SDS011;68422;44.714;37.756;2023-03-16T01:46:47;5.35;;;3.03;;
79019;SDS011;68422;44.714;37.756;2023-03-16T01:47:48;6.95;;;3.55;;
79019;SDS011;68422;44.714;37.756;2023-03-16T01:49:59;4.90;;;2.95;;
79019;SDS011;68422;44.714;37.756;2023-03-16T01:51:04;5.50;;;3.45;;
79019;SDS011;68422;44.714;37.756;2023-03-16T01:52:16;5.20;;;3.10;;
79019;SDS011;68422;44.714;37.756;2023-03-16T01:53:21;5.80;;;3.40;;
79019;SDS011;68422;44.714;37.756;2023-03-16T01:54:32;5.32;;;3.47;;
79019;SDS011;68422;44.714;37.756;2023-03-16T01:55:39;4.85;;;3.05;;
79019;SDS011;68422;44.714;37.756;2023-03-16T01:57:16;4.95;;;3.20;;
79019;SDS011;68422;44.714;37.756;2023-03-16T01:58:13;6.43;;;3.50;;
79019;SDS011;68422;44.714;37.756;2023-03-16T01:59:15;5.50;;;2.78;;
79019;SDS011;68422;44.714;37.756;2023-03-16T02:00:21;7.35;;;3.53;;
79019;SDS011;68422;44.714;37.756;2023-03-16T02:01:51;5.60;;;3.33;;
79019;SDS011;68422;44.714;37.756;2023-03-16T02:02:56;7.07;;;3.45;;
79019;SDS011;68422;44.714;37.756;2023-03-16T02:04:17;5.63;;;3.03;;
79019;SDS011;68422;44.714;37.756;2023-03-16T02:06:58;6.68;;;3.42;;
79019;SDS011;68422;44.714;37.756;2023-03-16T02:08:01;6.97;;;3.35;;
79019;SDS011;68422;44.714;37.756;2023-03-16T02:09:03;5.80;;;3.83;;
79019;SDS011;68422;44.714;37.756;2023-03-16T02:10:05;5.93;;;2.97;;
79019;SDS011;68422;44.714;37.756;2023-03-16T02:11:09;6.43;;;3.13;;
79019;SDS011;68422;44.714;37.756;2023-03-16T02:12:18;6.00;;;3.20;;
79019;SDS011;68422;44.714;37.756;2023-03-16T02:13:25;6.05;;;3.08;;
79019;SDS011;68422;44.714;37.756;2023-03-16T02:14:29;5.47;;;3.35;;
79019;SDS011;68422;44.714;37.756;2023-03-16T02:15:31;5.70;;;2.90;;
79019;SDS011;68422;44.714;37.756;2023-03-16T02:17:37;5.40;;;3.30;;
79019;SDS011;68422;44.714;37.756;2023-03-16T02:18:42;5.40;;;3.25;;
79019;SDS011;68422;44.714;37.756;2023-03-16T02:20:05;5.47;;;2.80;;
79019;SDS011;68422;44.714;37.756;2023-03-16T02:21:26;5.78;;;3.40;;
79019;SDS011;68422;44.714;37.756;2023-03-16T02:22:54;6.53;;;3.42;;
79019;SDS011;68422;44.714;37.756;2023-03-16T02:23:56;6.50;;;3.25;;
79019;SDS011;68422;44.714;37.756;2023-03-16T02:24:57;4.88;;;3.17;;
79019;SDS011;68422;44.714;37.756;2023-03-16T02:26:00;7.00;;;3.55;;
79019;SDS011;68422;44.714;37.756;2023-03-16T02:27:09;5.63;;;3.65;;
79019;SDS011;68422;44.714;37.756;2023-03-16T02:30:45;6.22;;;3.03;;
79019;SDS011;68422;44.714;37.756;2023-03-16T02:31:47;5.65;;;3.53;;
79019;SDS011;68422;44.714;37.756;2023-03-16T02:32:48;6.07;;;3.50;;
79019;SDS011;68422;44.714;37.756;2023-03-16T02:34:55;6.07;;;3.13;;
79019;SDS011;68422;44.714;37.756;2023-03-16T02:35:58;5.55;;;3.05;;
79019;SDS011;68422;44.714;37.756;2023-03-16T02:36:59;6.60;;;3.35;;
79019;SDS011;68422;44.714;37.756;2023-03-16T02:38:02;6.22;;;3.22;;
79019;SDS011;68422;44.714;37.756;2023-03-16T02:39:07;6.55;;;3.63;;
79019;SDS011;68422;44.714;37.756;2023-03-16T02:41:26;5.70;;;3.25;;
79019;SDS011;68422;44.714;37.756;2023-03-16T02:42:31;6.85;;;3.30;;
79019;SDS011;68422;44.714;37.756;2023-03-16T02:43:33;6.47;;;3.80;;
79019;SDS011;68422;44.714;37.756;2023-03-16T02:44:45;5.47;;;3.20;;
79019;SDS011;68422;44.714;37.756;2023-03-16T02:45:53;6.18;;;2.97;;
79019;SDS011;68422;44.714;37.756;2023-03-16T02:47:09;6.95;;;3.42;;
79019;SDS011;68422;44.714;37.756;2023-03-16T02:48:40;5.32;;;3.28;;
79019;SDS011;68422;44.714;37.756;2023-03-16T02:49:49;5.15;;;3.22;;
79019;SDS011;68422;44.714;37.756;2023-03-16T02:50:51;7.18;;;3.13;;
79019;SDS011;68422;44.714;37.756;2023-03-16T02:51:54;6.90;;;3.42;;
79019;SDS011;68422;44.714;37.756;2023-03-16T02:52:57;6.63;;;3.58;;
79019;SDS011;68422;44.714;37.756;2023-03-16T02:53:59;6.50;;;3.20;;
79019;SDS011;68422;44.714;37.756;2023-03-16T02:55:02;7.43;;;3.53;;
79019;SDS011;68422;44.714;37.756;2023-03-16T02:56:07;5.90;;;3.15;;
79019;SDS011;68422;44.714;37.756;2023-03-16T02:57:10;7.60;;;3.35;;
79019;SDS011;68422;44.714;37.756;2023-03-16T02:58:12;6.10;;;3.42;;
79019;SDS011;68422;44.714;37.756;2023-03-16T02:59:14;4.93;;;3.15;;
79019;SDS011;68422;44.714;37.756;2023-03-16T03:00:16;6.15;;;3.60;;
79019;SDS011;68422;44.714;37.756;2023-03-16T03:01:20;5.97;;;3.17;;
79019;SDS011;68422;44.714;37.756;2023-03-16T03:02:22;6.13;;;3.78;;
79019;SDS011;68422;44.714;37.756;2023-03-16T03:03:24;5.97;;;3.17;;
79019;SDS011;68422;44.714;37.756;2023-03-16T03:04:25;5.90;;;3.65;;
79019;SDS011;68422;44.714;37.756;2023-03-16T03:05:26;6.55;;;3.42;;
79019;SDS011;68422;44.714;37.756;2023-03-16T03:06:28;5.90;;;3.40;;
79019;SDS011;68422;44.714;37.756;2023-03-16T03:07:29;6.10;;;3.30;;
79019;SDS011;68422;44.714;37.756;2023-03-16T03:08:35;8.82;;;3.55;;
79019;SDS011;68422;44.714;37.756;2023-03-16T03:09:41;7.22;;;3.63;;
79019;SDS011;68422;44.714;37.756;2023-03-16T03:10:45;5.90;;;3.30;;
79019;SDS011;68422;44.714;37.756;2023-03-16T03:11:49;5.57;;;3.33;;
79019;SDS011;68422;44.714;37.756;2023-03-16T03:12:50;5.32;;;3.17;;
79019;SDS011;68422;44.714;37.756;2023-03-16T03:13:52;5.20;;;3.13;;
79019;SDS011;68422;44.714;37.756;2023-03-16T03:14:58;5.95;;;3.97;;
79019;SDS011;68422;44.714;37.756;2023-03-16T03:16:02;6.50;;;3.42;;
79019;SDS011;68422;44.714;37.756;2023-03-16T03:17:05;6.80;;;3.80;;
79019;SDS011;68422;44.714;37.756;2023-03-16T03:18:09;5.95;;;3.75;;
79019;SDS011;68422;44.714;37.756;2023-03-16T03:19:11;5.97;;;4.05;;
79019;SDS011;68422;44.714;37.756;2023-03-16T03:20:15;6.50;;;3.70;;
79019;SDS011;68422;44.714;37.756;2023-03-16T03:21:19;6.38;;;3.55;;
79019;SDS011;68422;44.714;37.756;2023-03-16T03:22:21;7.10;;;3.28;;
79019;SDS011;68422;44.714;37.756;2023-03-16T03:23:22;5.68;;;3.65;;
79019;SDS011;68422;44.714;37.756;2023-03-16T03:24:23;6.72;;;3.50;;
79019;SDS011;68422;44.714;37.756;2023-03-16T03:25:25;6.10;;;3.60;;
79019;SDS011;68422;44.714;37.756;2023-03-16T03:26:28;5.53;;;3.42;;
79019;SDS011;68422;44.714;37.756;2023-03-16T03:27:32;7.22;;;3.33;;
79019;SDS011;68422;44.714;37.756;2023-03-16T03:28:34;5.95;;;3.15;;
79019;SDS011;68422;44.714;37.756;2023-03-16T03:29:35;6.53;;;3.63;;
79019;SDS011;68422;44.714;37.756;2023-03-16T03:30:37;6.38;;;3.63;;
79019;SDS011;68422;44.714;37.756;2023-03-16T03:31:38;5.22;;;3.53;;
79019;SDS011;68422;44.714;37.756;2023-03-16T03:32:40;6.75;;;3.40;;
79019;SDS011;68422;44.714;37.756;2023-03-16T03:33:43;6.28;;;3.35;;
79019;SDS011;68422;44.714;37.756;2023-03-16T03:34:45;6.90;;;3.50;;
79019;SDS011;68422;44.714;37.756;2023-03-16T03:35:56;7.28;;;3.17;;
79019;SDS011;68422;44.714;37.756;2023-03-16T03:37:00;5.72;;;3.50;;
79019;SDS011;68422;44.714;37.756;2023-03-16T03:38:01;9.57;;;3.40;;
79019;SDS011;68422;44.714;37.756;2023-03-16T03:39:03;8.02;;;3.47;;
79019;SDS011;68422;44.714;37.756;2023-03-16T03:40:06;10.73;;;3.83;;
79019;SDS011;68422;44.714;37.756;2023-03-16T03:41:08;8.40;;;3.67;;
79019;SDS011;68422;44.714;37.756;2023-03-16T03:42:12;7.30;;;3.95;;
79019;SDS011;68422;44.714;37.756;2023-03-16T03:43:13;6.93;;;3.58;;
79019;SDS011;68422;44.714;37.756;2023-03-16T03:44:17;8.73;;;4.20;;
79019;SDS011;68422;44.714;37.756;2023-03-16T03:45:18;9.45;;;3.55;;
79019;SDS011;68422;44.714;37.756;2023-03-16T03:46:20;7.03;;;3.38;;
79019;SDS011;68422;44.714;37.756;2023-03-16T03:47:21;9.18;;;3.80;;
79019;SDS011;68422;44.714;37.756;2023-03-16T03:48:23;7.22;;;3.33;;
79019;SDS011;68422;44.714;37.756;2023-03-16T03:49:25;5.95;;;3.47;;
79019;SDS011;68422;44.714;37.756;2023-03-16T03:50:26;6.85;;;3.47;;
79019;SDS011;68422;44.714;37.756;2023-03-16T03:51:51;7.22;;;3.78;;
79019;SDS011;68422;44.714;37.756;2023-03-16T03:52:57;7.75;;;3.63;;
79019;SDS011;68422;44.714;37.756;2023-03-16T03:54:01;6.82;;;3.50;;
79019;SDS011;68422;44.714;37.756;2023-03-16T03:55:15;7.18;;;3.70;;
79019;SDS011;68422;44.714;37.756;2023-03-16T03:56:16;7.45;;;3.42;;
79019;SDS011;68422;44.714;37.756;2023-03-16T03:57:17;6.93;;;4.18;;
79019;SDS011;68422;44.714;37.756;2023-03-16T03:58:19;8.25;;;3.50;;
79019;SDS011;68422;44.714;37.756;2023-03-16T03:59:20;5.55;;;3.22;;
79019;SDS011;68422;44.714;37.756;2023-03-16T04:00:48;6.35;;;3.67;;
79019;SDS011;68422;44.714;37.756;2023-03-16T04:01:49;8.77;;;3.60;;
79019;SDS011;68422;44.714;37.756;2023-03-16T04:02:54;7.85;;;3.80;;
79019;SDS011;68422;44.714;37.756;2023-03-16T04:04:03;9.95;;;3.60;;
79019;SDS011;68422;44.714;37.756;2023-03-16T04:05:04;5.07;;;3.65;;
79019;SDS011;68422;44.714;37.756;2023-03-16T04:06:07;6.85;;;3.35;;
79019;SDS011;68422;44.714;37.756;2023-03-16T04:07:08;7.43;;;3.50;;
79019;SDS011;68422;44.714;37.756;2023-03-16T04:08:10;6.35;;;3.70;;
79019;SDS011;68422;44.714;37.756;2023-03-16T04:09:11;7.57;;;3.70;;
79019;SDS011;68422;44.714;37.756;2023-03-16T04:10:13;8.05;;;4.28;;
79019;SDS011;68422;44.714;37.756;2023-03-16T04:11:16;5.88;;;3.83;;
79019;SDS011;68422;44.714;37.756;2023-03-16T04:12:18;10.18;;;4.30;;
79019;SDS011;68422;44.714;37.756;2023-03-16T04:13:19;6.47;;;3.60;;
79019;SDS011;68422;44.714;37.756;2023-03-16T04:14:22;6.72;;;3.72;;
79019;SDS011;68422;44.714;37.756;2023-03-16T04:15:24;7.85;;;3.45;;
79019;SDS011;68422;44.714;37.756;2023-03-16T04:16:40;6.80;;;3.92;;
79019;SDS011;68422;44.714;37.756;2023-03-16T04:17:45;6.07;;;3.72;;
79019;SDS011;68422;44.714;37.756;2023-03-16T04:18:48;9.52;;;3.75;;
79019;SDS011;68422;44.714;37.756;2023-03-16T04:19:49;7.53;;;3.75;;
79019;SDS011;68422;44.714;37.756;2023-03-16T04:20:51;9.52;;;3.85;;
79019;SDS011;68422;44.714;37.756;2023-03-16T04:21:55;8.88;;;4.10;;
79019;SDS011;68422;44.714;37.756;2023-03-16T04:22:56;9.15;;;3.95;;
79019;SDS011;68422;44.714;37.756;2023-03-16T04:24:02;7.75;;;3.78;;
79019;SDS011;68422;44.714;37.756;2023-03-16T04:25:09;6.22;;;3.63;;
79019;SDS011;68422;44.714;37.756;2023-03-16T04:26:12;8.95;;;3.53;;
79019;SDS011;68422;44.714;37.756;2023-03-16T04:27:17;7.68;;;3.15;;
79019;SDS011;68422;44.714;37.756;2023-03-16T04:28:20;6.28;;;3.20;;
79019;SDS011;68422;44.714;37.756;2023-03-16T04:29:25;7.40;;;3.30;;
79019;SDS011;68422;44.714;37.756;2023-03-16T04:31:39;10.80;;;3.80;;
79019;SDS011;68422;44.714;37.756;2023-03-16T04:32:43;9.68;;;3.90;;
79019;SDS011;68422;44.714;37.756;2023-03-16T04:33:46;10.07;;;3.72;;
79019;SDS011;68422;44.714;37.756;2023-03-16T04:34:47;8.68;;;3.63;;
79019;SDS011;68422;44.714;37.756;2023-03-16T04:35:50;8.90;;;4.15;;
79019;SDS011;68422;44.714;37.756;2023-03-16T04:36:53;10.60;;;3.60;;
79019;SDS011;68422;44.714;37.756;2023-03-16T04:37:55;7.35;;;3.97;;
79019;SDS011;68422;44.714;37.756;2023-03-16T04:39:02;9.13;;;3.83;;
79019;SDS011;68422;44.714;37.756;2023-03-16T04:40:04;6.53;;;3.70;;
79019;SDS011;68422;44.714;37.756;2023-03-16T04:41:16;11.60;;;4.05;;
79019;SDS011;68422;44.714;37.756;2023-03-16T04:42:35;14.15;;;4.03;;
79019;SDS011;68422;44.714;37.756;2023-03-16T04:43:36;11.05;;;4.38;;
79019;SDS011;68422;44.714;37.756;2023-03-16T04:44:44;9.93;;;3.88;;
79019;SDS011;68422;44.714;37.756;2023-03-16T04:45:46;13.82;;;4.30;;
79019;SDS011;68422;44.714;37.756;2023-03-16T04:46:48;11.70;;;4.05;;
79019;SDS011;68422;44.714;37.756;2023-03-16T04:47:49;11.02;;;4.57;;
79019;SDS011;68422;44.714;37.756;2023-03-16T04:48:51;10.07;;;4.03;;
79019;SDS011;68422;44.714;37.756;2023-03-16T04:49:53;10.93;;;4.07;;
79019;SDS011;68422;44.714;37.756;2023-03-16T04:50:55;8.95;;;4.05;;
79019;SDS011;68422;44.714;37.756;2023-03-16T04:51:58;10.50;;;4.35;;
79019;SDS011;68422;44.714;37.756;2023-03-16T04:53:01;9.18;;;3.90;;
79019;SDS011;68422;44.714;37.756;2023-03-16T04:54:04;8.40;;;3.88;;
79019;SDS011;68422;44.714;37.756;2023-03-16T04:55:09;9.40;;;4.35;;
79019;SDS011;68422;44.714;37.756;2023-03-16T04:56:11;9.68;;;3.88;;
79019;SDS011;68422;44.714;37.756;2023-03-16T04:57:19;7.28;;;4.40;;
79019;SDS011;68422;44.714;37.756;2023-03-16T04:58:24;9.15;;;4.38;;
79019;SDS011;68422;44.714;37.756;2023-03-16T04:59:26;7.90;;;3.90;;
79019;SDS011;68422;44.714;37.756;2023-03-16T05:00:36;7.82;;;3.53;;
79019;SDS011;68422;44.714;37.756;2023-03-16T05:01:45;5.95;;;3.70;;
79019;SDS011;68422;44.714;37.756;2023-03-16T05:02:50;9.45;;;4.13;;
79019;SDS011;68422;44.714;37.756;2023-03-16T05:03:51;6.55;;;3.85;;
79019;SDS011;68422;44.714;37.756;2023-03-16T05:04:53;8.73;;;4.43;;
79019;SDS011;68422;44.714;37.756;2023-03-16T05:05:55;12.88;;;4.20;;
79019;SDS011;68422;44.714;37.756;2023-03-16T05:06:58;9.25;;;4.07;;
79019;SDS011;68422;44.714;37.756;2023-03-16T05:08:07;11.50;;;4.22;;
79019;SDS011;68422;44.714;37.756;2023-03-16T05:09:12;7.30;;;4.05;;
79019;SDS011;68422;44.714;37.756;2023-03-16T05:10:16;8.00;;;4.13;;
79019;SDS011;68422;44.714;37.756;2023-03-16T05:11:21;8.68;;;4.00;;
79019;SDS011;68422;44.714;37.756;2023-03-16T05:12:29;7.70;;;4.47;;
79019;SDS011;68422;44.714;37.756;2023-03-16T05:13:35;7.35;;;4.45;;
79019;SDS011;68422;44.714;37.756;2023-03-16T05:14:36;8.02;;;4.05;;
79019;SDS011;68422;44.714;37.756;2023-03-16T05:15:48;6.05;;;3.63;;
79019;SDS011;68422;44.714;37.756;2023-03-16T05:17:06;8.57;;;4.15;;
79019;SDS011;68422;44.714;37.756;2023-03-16T05:18:08;6.28;;;3.88;;
79019;SDS011;68422;44.714;37.756;2023-03-16T05:19:09;7.15;;;3.80;;
79019;SDS011;68422;44.714;37.756;2023-03-16T05:20:11;7.00;;;4.13;;
79019;SDS011;68422;44.714;37.756;2023-03-16T05:21:16;8.63;;;4.25;;
79019;SDS011;68422;44.714;37.756;2023-03-16T05:22:31;8.27;;;4.50;;
79019;SDS011;68422;44.714;37.756;2023-03-16T05:23:52;9.30;;;4.07;;
79019;SDS011;68422;44.714;37.756;2023-03-16T05:24:53;5.68;;;3.80;;
79019;SDS011;68422;44.714;37.756;2023-03-16T05:25:55;5.68;;;3.75;;
79019;SDS011;68422;44.714;37.756;2023-03-16T05:27:00;10.40;;;5.15;;
79019;SDS011;68422;44.714;37.756;2023-03-16T05:28:03;7.32;;;3.75;;
79019;SDS011;68422;44.714;37.756;2023-03-16T05:29:25;7.57;;;3.80;;
79019;SDS011;68422;44.714;37.756;2023-03-16T05:30:26;7.00;;;3.95;;
79019;SDS011;68422;44.714;37.756;2023-03-16T05:31:30;8.35;;;4.10;;
79019;SDS011;68422;44.714;37.756;2023-03-16T05:32:39;9.20;;;4.30;;
79019;SDS011;68422;44.714;37.756;2023-03-16T05:33:40;6.47;;;4.00;;
79019;SDS011;68422;44.714;37.756;2023-03-16T05:34:45;8.75;;;4.28;;
79019;SDS011;68422;44.714;37.756;2023-03-16T05:35:46;6.90;;;4.03;;
79019;SDS011;68422;44.714;37.756;2023-03-16T05:36:48;6.57;;;4.03;;
79019;SDS011;68422;44.714;37.756;2023-03-16T05:37:52;7.25;;;3.92;;
79019;SDS011;68422;44.714;37.756;2023-03-16T05:38:54;6.53;;;4.22;;
79019;SDS011;68422;44.714;37.756;2023-03-16T05:40:10;6.55;;;3.95;;
79019;SDS011;68422;44.714;37.756;2023-03-16T05:41:29;7.47;;;3.95;;
79019;SDS011;68422;44.714;37.756;2023-03-16T05:42:37;10.27;;;4.10;;
79019;SDS011;68422;44.714;37.756;2023-03-16T05:43:39;8.05;;;3.83;;
79019;SDS011;68422;44.714;37.756;2023-03-16T05:44:40;6.32;;;4.22;;
79019;SDS011;68422;44.714;37.756;2023-03-16T05:46:00;7.07;;;3.88;;
79019;SDS011;68422;44.714;37.756;2023-03-16T05:47:01;7.55;;;4.00;;
79019;SDS011;68422;44.714;37.756;2023-03-16T05:49:09;9.80;;;3.90;;
79019;SDS011;68422;44.714;37.756;2023-03-16T05:50:13;10.45;;;4.50;;
79019;SDS011;68422;44.714;37.756;2023-03-16T05:51:17;7.82;;;3.97;;
79019;SDS011;68422;44.714;37.756;2023-03-16T05:52:18;7.32;;;4.03;;
79019;SDS011;68422;44.714;37.756;2023-03-16T05:53:20;7.20;;;4.07;;
79019;SDS011;68422;44.714;37.756;2023-03-16T05:54:30;6.28;;;3.70;;
79019;SDS011;68422;44.714;37.756;2023-03-16T05:55:31;8.35;;;4.47;;
79019;SDS011;68422;44.714;37.756;2023-03-16T05:56:35;7.22;;;3.85;;
79019;SDS011;68422;44.714;37.756;2023-03-16T05:57:37;7.45;;;4.40;;
79019;SDS011;68422;44.714;37.756;2023-03-16T05:58:39;7.65;;;4.85;;
79019;SDS011;68422;44.714;37.756;2023-03-16T05:59:42;9.70;;;4.15;;
79019;SDS011;68422;44.714;37.756;2023-03-16T06:00:45;7.25;;;4.68;;
79019;SDS011;68422;44.714;37.756;2023-03-16T06:01:56;9.00;;;3.83;;
79019;SDS011;68422;44.714;37.756;2023-03-16T06:02:57;6.70;;;4.28;;
79019;SDS011;68422;44.714;37.756;2023-03-16T06:04:03;7.15;;;3.92;;
79019;SDS011;68422;44.714;37.756;2023-03-16T06:05:08;6.65;;;4.05;;
79019;SDS011;68422;44.714;37.756;2023-03-16T06:06:14;7.28;;;4.43;;
79019;SDS011;68422;44.714;37.756;2023-03-16T06:07:26;7.13;;;4.47;;
79019;SDS011;68422;44.714;37.756;2023-03-16T06:08:29;7.78;;;4.18;;
79019;SDS011;68422;44.714;37.756;2023-03-16T06:09:37;7.68;;;3.80;;
79019;SDS011;68422;44.714;37.756;2023-03-16T06:10:47;7.60;;;4.57;;
79019;SDS011;68422;44.714;37.756;2023-03-16T06:11:50;9.20;;;4.07;;
79019;SDS011;68422;44.714;37.756;2023-03-16T06:12:52;7.40;;;4.00;;
79019;SDS011;68422;44.714;37.756;2023-03-16T06:13:54;7.72;;;4.05;;
79019;SDS011;68422;44.714;37.756;2023-03-16T06:14:57;6.60;;;3.95;;
79019;SDS011;68422;44.714;37.756;2023-03-16T06:15:59;7.43;;;3.88;;
79019;SDS011;68422;44.714;37.756;2023-03-16T06:17:01;10.52;;;4.57;;
79019;SDS011;68422;44.714;37.756;2023-03-16T06:18:03;6.13;;;4.10;;
79019;SDS011;68422;44.714;37.756;2023-03-16T06:19:04;8.15;;;4.38;;
79019;SDS011;68422;44.714;37.756;2023-03-16T06:20:07;8.55;;;4.45;;
79019;SDS011;68422;44.714;37.756;2023-03-16T06:21:12;7.85;;;4.45;;
79019;SDS011;68422;44.714;37.756;2023-03-16T06:22:14;6.25;;;4.15;;
79019;SDS011;68422;44.714;37.756;2023-03-16T06:23:16;8.32;;;4.28;;
79019;SDS011;68422;44.714;37.756;2023-03-16T06:24:20;7.68;;;4.22;;
79019;SDS011;68422;44.714;37.756;2023-03-16T06:25:21;6.35;;;3.72;;
79019;SDS011;68422;44.714;37.756;2023-03-16T06:26:24;5.97;;;3.78;;
79019;SDS011;68422;44.714;37.756;2023-03-16T06:27:25;7.00;;;4.13;;
79019;SDS011;68422;44.714;37.756;2023-03-16T06:28:41;7.97;;;4.63;;
79019;SDS011;68422;44.714;37.756;2023-03-16T06:29:43;5.85;;;3.90;;
79019;SDS011;68422;44.714;37.756;2023-03-16T06:30:44;6.32;;;3.95;;
79019;SDS011;68422;44.714;37.756;2023-03-16T06:31:45;6.47;;;3.90;;
79019;SDS011;68422;44.714;37.756;2023-03-16T06:32:47;7.35;;;4.20;;